Date,TemperatureHighF,TemperatureAvgF,TemperatureLowF,DewpointHighF,DewpointAvgF,DewpointLowF,HumidityHigh,HumidityAvg,HumidityLow,PressureMaxIn,PressureMinIn,WindSpeedMaxMPH,WindSpeedAvgMPH,GustSpeedMaxMPH,PrecipitationSumIn
2013-6-1,90.4,73.5,59.2,70.3,63.5,58.2,98,75,36,29.96,29.81,4,1,21,0.00
2013-6-2,87.7,71.9,64.3,73.2,67.1,63.1,97,86,58,29.86,29.64,4,0,11,0.10
2013-6-3,73.0,63.3,49.2,64.0,56.5,45.5,98,80,54,29.85,29.76,4,1,18,0.01
2013-6-4,62.3,52.0,41.9,46.9,43.2,40.3,94,74,49,30.14,29.86,8,1,16,0.00
2013-6-5,69.9,54.5,38.2,45.7,41.2,37.2,97,66,31,30.25,30.14,8,1,12,0.00
2013-6-6,70.4,58.1,47.5,52.1,46.9,41.5,93,69,40,30.24,30.12,7,0,9,0.02
2013-6-7,54.6,52.4,50.6,52.6,50.7,48.6,97,94,86,30.13,29.94,4,0,6,0.57
2013-6-8,63.0,57.1,50.5,58.0,54.0,49.7,97,90,82,30.05,29.78,6,0,9,0.41
2013-6-9,74.2,61.9,52.0,58.2,54.6,50.0,97,79,51,30.22,30.05,5,0,15,0.00
2013-6-10,72.9,59.2,47.0,60.4,52.8,46.1,98,81,51,30.25,30.03,3,0,6,0.01
2013-6-11,60.8,55.9,53.6,57.7,54.3,52.1,97,94,83,30.03,29.62,2,0,7,0.95
2013-6-12,54.1,53.3,52.7,53.3,52.0,51.3,97,95,94,29.67,29.62,5,1,9,0.02
2013-6-13,69.2,56.6,46.2,59.0,52.6,45.4,98,88,59,29.87,29.72,1,0,7,0.01
2013-6-14,75.7,62.6,51.0,58.0,51.8,47.0,98,72,37,29.82,29.72,10,1,15,0.00
2013-6-15,73.0,59.3,43.9,50.6,45.2,40.7,92,64,34,29.97,29.84,4,1,14,0.00
2013-6-16,71.6,56.4,43.9,59.3,52.1,42.6,97,87,54,29.95,29.73,1,0,8,0.32
2013-6-17,74.4,61.5,52.3,63.6,57.3,51.5,98,87,56,29.94,29.79,9,0,11,0.06
2013-6-18,70.0,57.5,47.8,53.4,49.4,45.3,98,77,42,30.02,29.93,5,0,7,0.00
2013-6-19,69.8,55.8,41.7,50.3,44.1,40.7,97,69,35,30.22,30.00,10,1,14,0.00
2013-6-20,76.3,59.8,39.7,52.8,47.1,38.6,97,67,36,30.31,30.20,5,0,8,0.00
2013-6-21,80.5,58.6,45.4,58.3,50.2,44.0,97,78,38,30.28,30.22,5,0,13,0.00
2013-6-25,86.3,69.0,62.0,74.8,66.0,61.2,98,91,61,29.93,29.74,4,0,19,1.45
2013-6-26,76.1,67.2,63.0,69.2,65.6,62.1,99,95,78,29.85,29.76,1,0,7,0.12
2013-6-27,83.1,70.4,61.4,72.8,66.3,60.8,99,88,66,29.83,29.74,1,0,6,0.00
2013-6-28,76.4,66.2,59.6,69.3,63.4,58.2,96,91,76,29.75,29.46,4,1,12,0.56
2013-6-29,79.2,68.5,63.2,69.7,65.2,62.0,98,90,64,29.69,29.50,3,0,12,0.56
2013-6-30,83.2,70.8,62.2,70.6,65.7,61.6,98,85,55,29.94,29.69,1,0,9,0.30